createdAt,value
2022-11-02T00:02:18.818Z,79.65
2022-11-02T00:04:46.907Z,80.14
2022-11-02T00:07:14.934Z,80.31
2022-11-02T00:09:42.891Z,80.62
2022-11-02T00:12:12.224Z,81.27
2022-11-02T00:14:40.146Z,81.60
2022-11-02T00:17:09.506Z,81.89
2022-11-02T00:19:37.621Z,82.36
2022-11-02T00:22:05.965Z,82.87
2022-11-02T00:24:34.843Z,82.80
2022-11-02T00:27:03.300Z,83.06
2022-11-02T00:29:34.344Z,83.38
2022-11-02T00:32:02.582Z,83.77
2022-11-02T00:34:30.564Z,84.22
2022-11-02T00:36:58.905Z,84.16
2022-11-02T00:39:26.942Z,84.19
2022-11-02T00:41:54.902Z,83.69
2022-11-02T00:44:22.882Z,83.97
2022-11-02T00:46:53.327Z,84.45
2022-11-02T00:49:21.327Z,84.38
2022-11-02T00:51:49.268Z,83.67
2022-11-02T00:54:17.281Z,83.49
2022-11-02T00:56:45.291Z,84.22
2022-11-02T00:59:13.309Z,84.67
2022-11-02T01:01:41.348Z,84.82
2022-11-02T01:04:10.795Z,85.10
2022-11-02T01:06:39.053Z,85.25
2022-11-02T01:09:07.136Z,85.16
2022-11-02T01:11:35.089Z,84.97
2022-11-02T01:14:03.454Z,84.96
2022-11-02T01:16:32.145Z,85.20
2022-11-02T01:19:00.629Z,85.07
2022-11-02T01:21:30.132Z,83.93
2022-11-02T01:23:58.112Z,83.89
2022-11-02T01:26:26.205Z,83.74
2022-11-02T01:28:55.825Z,84.19
2022-11-02T01:31:24.093Z,84.21
2022-11-02T01:33:52.254Z,84.11
2022-11-02T01:38:51.736Z,84.05
2022-11-02T01:41:20.080Z,84.53
2022-11-02T01:43:52.699Z,84.72
2022-11-02T01:46:25.974Z,84.35
2022-11-02T01:49:03.652Z,84.25
2022-11-02T01:51:37.046Z,84.06
2022-11-02T01:54:11.351Z,83.38
2022-11-02T01:56:42.343Z,83.71
2022-11-02T01:59:18.291Z,82.60
2022-11-02T02:01:47.575Z,82.74
2022-11-02T02:04:16.896Z,83.18
2022-11-02T02:06:45.870Z,82.71
2022-11-02T02:09:16.276Z,82.63
2022-11-02T02:11:44.266Z,81.66
2022-11-02T02:14:17.446Z,82.60
2022-11-02T02:17:06.322Z,82.95
2022-11-02T02:19:45.601Z,82.89
2022-11-02T02:22:37.609Z,81.84
2022-11-02T02:25:27.278Z,81.14
2022-11-02T02:28:19.592Z,80.43
2022-11-02T02:30:57.254Z,80.00
2022-11-02T02:33:33.830Z,79.75
2022-11-02T02:36:11.501Z,80.25
2022-11-02T02:38:47.988Z,80.07
2022-11-02T02:41:25.925Z,80.74
2022-11-02T02:43:59.653Z,81.47
2022-11-02T02:46:36.390Z,81.79
2022-11-02T02:49:11.022Z,81.51
2022-11-02T02:51:41.805Z,79.95
2022-11-02T02:54:16.119Z,79.43
2022-11-02T02:56:50.260Z,80.25
2022-11-02T02:59:25.813Z,80.55
2022-11-02T03:01:57.044Z,81.47
2022-11-02T03:04:26.191Z,81.34
2022-11-02T03:07:00.433Z,80.90
2022-11-02T03:09:38.691Z,82.17
2022-11-02T03:12:24.141Z,82.63
2022-11-02T03:15:10.433Z,82.03
2022-11-02T03:17:53.829Z,81.16
2022-11-02T03:20:29.501Z,81.17
2022-11-02T03:23:13.536Z,81.58
2022-11-02T03:25:55.152Z,80.94
2022-11-02T03:28:34.609Z,81.01
2022-11-02T03:31:11.050Z,81.01
2022-11-02T03:33:47.599Z,79.81
2022-11-02T03:36:21.863Z,79.65
2022-11-02T03:38:57.432Z,80.07
2022-11-02T03:41:28.711Z,79.24
2022-11-02T03:44:04.915Z,79.25
2022-11-02T03:46:39.606Z,78.36
2022-11-02T03:49:14.468Z,78.24
2022-11-02T03:51:46.859Z,78.20
2022-11-02T03:54:26.141Z,78.94
2022-11-02T03:59:36.649Z,77.92
2022-11-02T04:02:06.073Z,77.42
2022-11-02T04:04:34.200Z,77.21
2022-11-02T04:07:02.292Z,77.14
2022-11-02T04:09:30.307Z,77.69
2022-11-02T04:12:15.903Z,77.98
2022-11-02T04:14:43.877Z,78.23
2022-11-02T04:19:59.111Z,77.52
2022-11-02T04:22:44.988Z,77.29
2022-11-02T04:25:18.474Z,78.22
2022-11-02T04:27:49.536Z,78.59
2022-11-02T04:30:21.068Z,78.55
2022-11-02T04:33:09.459Z,77.91
2022-11-02T04:35:38.335Z,76.58
2022-11-02T04:38:29.484Z,77.15
2022-11-02T04:41:11.394Z,77.87
2022-11-02T04:43:39.356Z,78.13
2022-11-02T04:46:07.342Z,77.14
2022-11-02T04:48:36.646Z,76.56
2022-11-02T04:51:04.787Z,75.70
2022-11-02T04:53:32.743Z,76.77
2022-11-02T04:56:00.716Z,76.85
2022-11-02T04:58:28.738Z,77.07
2022-11-02T05:00:56.702Z,77.21
2022-11-02T05:03:24.675Z,77.70
2022-11-02T05:05:56.777Z,76.05
2022-11-02T05:08:24.754Z,76.88
2022-11-02T05:10:56.339Z,77.01
2022-11-02T05:13:25.704Z,77.01
2022-11-02T05:15:56.497Z,77.93
2022-11-02T05:18:25.237Z,77.01
2022-11-02T05:20:54.689Z,76.72
2022-11-02T05:23:25.204Z,77.23
2022-11-02T05:25:58.490Z,77.56
2022-11-02T05:28:28.389Z,76.67
2022-11-02T05:30:58.708Z,76.12
2022-11-02T05:33:30.489Z,75.43
2022-11-02T05:36:00.518Z,76.20
2022-11-02T05:38:30.779Z,76.35
2022-11-02T05:41:00.903Z,76.40
2022-11-02T05:43:29.380Z,76.14
2022-11-02T05:46:00.566Z,75.85
2022-11-02T05:48:32.056Z,75.03
2022-11-02T05:51:02.349Z,75.12
2022-11-02T05:53:34.057Z,75.08
2022-11-02T05:56:04.381Z,74.32
2022-11-02T05:58:34.694Z,75.47
2022-11-02T06:01:04.887Z,76.09
2022-11-02T06:03:33.470Z,75.47
2022-11-02T06:06:04.192Z,74.81
2022-11-02T06:08:35.911Z,75.24
2022-11-02T06:11:06.188Z,74.75
2022-11-02T06:13:34.796Z,74.24
2022-11-02T06:16:04.056Z,74.82
2022-11-02T06:18:32.466Z,75.50
2022-11-02T06:21:01.685Z,74.75
2022-11-02T06:23:30.483Z,74.93
2022-11-02T06:26:01.343Z,74.67
2022-11-02T06:28:31.130Z,74.44
2022-11-02T06:30:59.709Z,75.20
2022-11-02T06:33:27.717Z,75.50
2022-11-02T06:35:56.382Z,75.61
2022-11-02T06:38:25.233Z,75.76
2022-11-02T06:40:59.324Z,75.10
2022-11-02T06:43:27.647Z,74.83
2022-11-02T06:45:56.722Z,75.63
2022-11-02T06:48:28.607Z,75.72
2022-11-02T06:50:59.629Z,75.27
2022-11-02T06:53:27.779Z,74.38
2022-11-02T06:55:57.824Z,74.25
2022-11-02T06:58:28.181Z,74.20
2022-11-02T07:01:00.845Z,74.06
2022-11-02T07:03:30.033Z,73.08
2022-11-02T07:05:59.036Z,73.22
2022-11-02T07:08:28.589Z,72.80
2022-11-02T07:10:57.023Z,72.86
2022-11-02T07:13:26.426Z,73.29
2022-11-02T07:15:55.804Z,71.89
2022-11-02T07:18:24.057Z,71.06
2022-11-02T07:20:52.495Z,71.28
2022-11-02T07:23:23.626Z,71.20
2022-11-02T07:25:51.800Z,71.29
2022-11-02T07:28:20.003Z,70.51
2022-11-02T07:30:50.003Z,69.28
2022-11-02T07:33:18.019Z,70.01
2022-11-02T07:35:45.996Z,69.95
2022-11-02T07:38:14.010Z,69.82
2022-11-02T07:40:42.029Z,68.84
2022-11-02T07:43:10.277Z,68.75
2022-11-02T07:45:38.375Z,69.57
2022-11-02T07:48:07.765Z,68.77
2022-11-02T07:50:35.766Z,67.36
2022-11-02T07:53:03.995Z,68.15
2022-11-02T07:55:33.044Z,67.99
2022-11-02T07:58:03.506Z,68.18
2022-11-02T08:00:35.331Z,67.57
2022-11-02T08:03:04.944Z,66.30
2022-11-02T08:05:37.743Z,66.02
2022-11-02T08:08:08.748Z,66.91
2022-11-02T08:10:40.365Z,66.80
2022-11-02T08:13:09.348Z,67.17
2022-11-02T08:15:37.739Z,65.39
2022-11-02T08:18:09.155Z,65.93
2022-11-02T08:20:38.703Z,64.84
2022-11-02T08:23:07.907Z,64.34
2022-11-02T08:25:38.262Z,62.85
2022-11-02T08:28:08.459Z,62.02
2022-11-02T08:30:38.810Z,62.14
2022-11-02T08:33:11.615Z,63.09
2022-11-02T08:35:41.527Z,62.90
2022-11-02T08:38:10.512Z,62.72
2022-11-02T08:40:39.842Z,63.29
2022-11-02T08:43:10.537Z,62.79
2022-11-02T08:48:29.399Z,63.34
2022-11-02T08:50:58.851Z,63.06
2022-11-02T08:53:26.807Z,63.13
2022-11-02T08:55:54.818Z,62.82
2022-11-02T08:58:22.762Z,62.27
2022-11-02T09:00:53.892Z,62.32
2022-11-02T09:03:26.901Z,61.83
2022-11-02T09:06:02.002Z,62.20
2022-11-02T09:08:31.274Z,61.29
2022-11-02T09:11:03.080Z,61.22
2022-11-02T09:13:31.510Z,60.77
2022-11-02T09:16:01.320Z,61.37
2022-11-02T09:18:29.686Z,60.47
2022-11-02T09:21:03.631Z,59.75
2022-11-02T09:23:32.303Z,59.74
2022-11-02T09:26:00.810Z,59.70
2022-11-02T09:28:28.883Z,59.41
2022-11-02T09:30:56.926Z,59.56
2022-11-02T09:33:25.018Z,59.60
2022-11-02T09:35:53.014Z,59.60
2022-11-02T09:38:22.377Z,59.33
2022-11-02T09:41:06.839Z,59.60
2022-11-02T09:43:48.709Z,59.44
2022-11-02T09:46:22.851Z,58.68
2022-11-02T09:48:57.042Z,58.16
2022-11-02T09:51:32.806Z,57.97
2022-11-02T09:54:13.332Z,57.63
2022-11-02T09:56:46.258Z,57.80
2022-11-02T09:59:17.082Z,58.02
2022-11-02T10:02:02.048Z,57.09
2022-11-02T10:05:01.678Z,56.82
2022-11-02T10:08:06.266Z,56.76
2022-11-02T10:10:40.906Z,57.43
2022-11-02T10:13:34.195Z,56.87
2022-11-02T10:16:08.891Z,57.03
2022-11-02T10:18:40.108Z,56.35
2022-11-02T10:21:14.673Z,55.44
2022-11-02T10:23:48.551Z,54.64
2022-11-02T10:26:29.910Z,54.20
2022-11-02T10:29:07.769Z,54.70
2022-11-02T10:31:36.007Z,53.91
2022-11-02T10:34:23.453Z,53.59
2022-11-02T10:37:14.384Z,52.92
2022-11-02T10:39:55.518Z,53.11
2022-11-02T10:42:53.859Z,52.44
2022-11-02T10:46:10.305Z,52.66
2022-11-02T10:48:51.385Z,52.79
2022-11-02T10:51:21.813Z,52.50
2022-11-02T10:53:53.286Z,52.37
2022-11-02T10:56:24.286Z,52.07
2022-11-02T10:59:03.112Z,51.75
2022-11-02T11:01:33.440Z,51.42
2022-11-02T11:04:03.807Z,51.56
2022-11-02T11:06:36.921Z,51.59
2022-11-02T11:09:16.883Z,51.28
2022-11-02T11:11:56.630Z,50.83
2022-11-02T11:20:36.262Z,51.54
2022-11-02T11:23:22.182Z,50.87
2022-11-02T11:26:00.515Z,50.50
2022-11-02T11:28:40.094Z,50.38
2022-11-02T11:31:13.485Z,49.87
2022-11-02T11:33:49.205Z,50.15
2022-11-02T11:36:33.068Z,50.40
2022-11-02T11:39:04.448Z,49.41
2022-11-02T11:41:35.151Z,48.35
2022-11-02T11:44:04.278Z,48.37
2022-11-02T11:46:45.095Z,48.01
2022-11-02T11:49:35.871Z,47.21
2022-11-02T11:52:21.075Z,46.63
2022-11-02T11:54:58.234Z,48.24
2022-11-02T11:57:31.476Z,48.96
2022-11-02T12:00:04.664Z,49.61
2022-11-02T12:02:41.001Z,50.26
2022-11-02T12:05:16.215Z,50.24
2022-11-02T12:08:21.193Z,50.44
2022-11-02T12:11:16.367Z,49.48
2022-11-02T12:14:12.189Z,48.88
2022-11-02T12:17:08.566Z,48.75
2022-11-02T12:19:59.481Z,48.50
2022-11-02T12:22:43.848Z,48.40
2022-11-02T12:25:28.599Z,48.19
2022-11-02T12:28:09.064Z,47.98
2022-11-02T12:30:57.014Z,47.23
2022-11-02T12:33:53.040Z,45.66
2022-11-02T12:37:11.127Z,44.83
2022-11-02T12:39:58.376Z,44.66
2022-11-02T12:42:33.162Z,45.07
2022-11-02T12:45:22.764Z,45.42
2022-11-02T12:47:58.843Z,45.60
2022-11-02T12:50:53.019Z,46.52
2022-11-02T12:53:38.960Z,48.17
2022-11-02T12:56:17.347Z,48.94
2022-11-02T12:58:47.073Z,49.71
2022-11-02T13:01:27.246Z,50.17
2022-11-02T13:04:05.917Z,49.78
2022-11-02T13:06:40.731Z,50.06
2022-11-02T13:09:14.998Z,48.69
2022-11-02T13:11:48.236Z,48.90
2022-11-02T13:14:21.852Z,48.99
2022-11-02T13:16:58.274Z,48.53
2022-11-02T13:19:36.226Z,48.50
2022-11-02T13:22:09.596Z,48.76
2022-11-02T13:24:46.418Z,48.81
2022-11-02T13:27:36.541Z,47.23
2022-11-02T13:30:15.982Z,47.55
2022-11-02T13:32:49.186Z,47.57
2022-11-02T13:35:25.185Z,47.43
2022-11-02T13:38:03.275Z,46.89
2022-11-02T13:40:41.212Z,47.55
2022-11-02T13:44:01.222Z,48.29
2022-11-02T13:47:02.754Z,49.14
2022-11-02T13:49:37.302Z,49.43
2022-11-02T13:52:14.998Z,49.81
2022-11-02T13:54:47.723Z,49.01
2022-11-02T13:57:40.951Z,48.99
2022-11-02T14:00:32.828Z,49.01
2022-11-02T14:03:08.854Z,49.25
2022-11-02T14:05:47.839Z,49.41
2022-11-02T14:08:26.511Z,49.23
2022-11-02T14:11:24.864Z,49.64
2022-11-02T14:14:22.104Z,50.12
2022-11-02T14:17:14.763Z,50.29
2022-11-02T14:20:04.231Z,50.04
2022-11-02T14:22:33.006Z,50.11
2022-11-02T14:25:19.070Z,49.88
2022-11-02T14:27:47.006Z,50.69
2022-11-02T14:30:45.487Z,50.44
2022-11-02T14:33:51.649Z,50.72
2022-11-02T14:36:46.186Z,50.72
2022-11-02T14:39:26.630Z,50.95
2022-11-02T14:42:20.481Z,50.51
2022-11-02T14:45:23.626Z,50.86
2022-11-02T14:47:59.462Z,51.64
2022-11-02T14:50:27.984Z,52.82
2022-11-02T14:53:05.811Z,52.36
2022-11-02T14:55:36.914Z,51.67
2022-11-02T14:58:11.293Z,52.48
2022-11-02T15:00:58.006Z,52.26
2022-11-02T15:03:35.671Z,53.14
2022-11-02T15:06:13.639Z,53.43
2022-11-02T15:08:55.645Z,53.24
2022-11-02T15:11:49.038Z,52.83
2022-11-02T15:14:52.600Z,54.17
2022-11-02T15:17:53.472Z,55.15
2022-11-02T15:20:35.328Z,55.42
2022-11-02T15:23:30.067Z,55.40
2022-11-02T15:26:05.951Z,56.29
2022-11-02T15:28:35.883Z,56.47
2022-11-02T15:31:14.942Z,56.06
2022-11-02T15:33:47.796Z,56.56
2022-11-02T15:36:24.791Z,56.30
2022-11-02T15:38:54.776Z,56.00
2022-11-02T15:41:39.106Z,56.34
2022-11-02T15:44:49.537Z,57.15
2022-11-02T15:47:34.625Z,57.16
2022-11-02T15:50:28.458Z,56.60
2022-11-02T15:53:24.661Z,57.30
2022-11-02T15:56:15.211Z,58.04
2022-11-02T15:59:12.515Z,58.75
2022-11-02T16:01:41.475Z,58.73
2022-11-02T16:04:19.921Z,59.60
2022-11-02T16:06:49.420Z,59.89
2022-11-02T16:09:33.003Z,59.70
2022-11-02T16:12:12.919Z,60.65
2022-11-02T16:14:42.499Z,61.07
2022-11-02T16:17:21.915Z,61.60
2022-11-02T16:19:50.304Z,62.65
2022-11-02T16:22:26.984Z,62.82
2022-11-02T16:24:55.624Z,63.02
2022-11-02T16:27:24.223Z,63.76
2022-11-02T16:29:53.588Z,64.27
2022-11-02T16:32:21.852Z,64.85
2022-11-02T16:34:50.087Z,65.58
2022-11-02T16:37:20.126Z,65.70
2022-11-02T16:39:48.968Z,65.91
2022-11-02T16:42:20.082Z,66.54
2022-11-02T16:44:59.465Z,66.80
2022-11-02T16:47:38.503Z,67.24
2022-11-02T16:50:21.157Z,66.89
2022-11-02T16:52:57.317Z,66.95
2022-11-02T16:55:42.188Z,66.96
2022-11-02T16:58:21.087Z,67.33
2022-11-02T17:01:00.168Z,67.41
2022-11-02T17:03:33.241Z,67.08
2022-11-02T17:06:05.972Z,66.38
2022-11-02T17:08:37.724Z,66.50
2022-11-02T17:11:13.456Z,66.87
2022-11-02T17:13:50.098Z,66.66
2022-11-02T17:16:19.602Z,66.39
2022-11-02T17:18:47.830Z,66.25
2022-11-02T17:21:29.816Z,66.15
2022-11-02T17:24:00.123Z,66.45
2022-11-02T17:26:33.626Z,66.61
2022-11-02T17:29:03.342Z,66.52
2022-11-02T17:31:38.037Z,66.89
2022-11-02T17:34:11.933Z,66.18
2022-11-02T17:36:43.795Z,66.62
2022-11-02T17:39:15.528Z,66.93
2022-11-02T17:42:01.662Z,67.35
2022-11-02T17:44:29.579Z,67.63
2022-11-02T17:46:59.464Z,66.90
2022-11-02T17:49:27.395Z,66.49
2022-11-02T17:51:55.376Z,66.72
2022-11-02T17:54:23.425Z,67.51
2022-11-02T17:56:51.389Z,67.45
2022-11-02T17:59:19.310Z,67.84
2022-11-02T18:01:47.348Z,68.21
2022-11-02T18:04:16.774Z,68.34
2022-11-02T18:06:44.662Z,69.00
2022-11-02T18:09:14.399Z,69.06
2022-11-02T18:11:42.637Z,69.29
2022-11-02T18:14:16.744Z,69.98
2022-11-02T18:16:45.860Z,69.98
2022-11-02T18:19:14.935Z,70.34
2022-11-02T18:21:44.178Z,70.63
2022-11-02T18:24:12.148Z,70.91
2022-11-02T18:26:44.132Z,70.76
2022-11-02T18:29:14.973Z,70.57
2022-11-02T18:31:42.893Z,70.58
2022-11-02T18:34:11.217Z,70.70
2022-11-02T18:36:39.951Z,70.94
2022-11-02T18:39:09.368Z,71.04
2022-11-02T18:41:37.507Z,70.94
2022-11-02T18:44:13.616Z,71.12
2022-11-02T18:46:42.765Z,70.86
2022-11-02T18:49:10.677Z,70.97
2022-11-02T18:51:42.772Z,70.58
2022-11-02T18:54:14.881Z,70.79
2022-11-02T18:56:42.788Z,70.36
2022-11-02T18:59:10.892Z,70.46
2022-11-02T19:01:38.916Z,70.29
2022-11-02T19:04:07.041Z,70.04
2022-11-02T19:06:53.196Z,70.63
2022-11-02T19:09:26.849Z,71.04
2022-11-02T19:12:03.791Z,71.38
2022-11-02T19:14:36.295Z,71.38
2022-11-02T19:17:05.320Z,71.29
2022-11-02T19:19:34.250Z,71.53
2022-11-02T19:22:02.296Z,71.49
2022-11-02T19:24:31.583Z,71.55
2022-11-02T19:26:59.814Z,71.73
2022-11-02T19:29:27.750Z,71.62
2022-11-02T19:31:55.639Z,71.43
2022-11-02T19:34:23.900Z,71.62
2022-11-02T19:36:51.827Z,71.73
2022-11-02T19:39:19.685Z,71.99
2022-11-02T19:41:52.212Z,72.34
2022-11-02T19:44:20.254Z,72.80
2022-11-02T19:46:48.732Z,72.13
2022-11-02T19:49:19.489Z,71.97
2022-11-02T19:51:47.422Z,72.45
2022-11-02T19:54:15.611Z,71.58
2022-11-02T19:56:43.558Z,71.55
2022-11-02T19:59:13.044Z,71.61
2022-11-02T20:01:43.007Z,72.07
2022-11-02T20:04:11.698Z,72.54
2022-11-02T20:06:42.240Z,72.99
2022-11-02T20:09:16.694Z,73.23
2022-11-02T20:11:46.238Z,73.78
2022-11-02T20:14:17.674Z,74.09
2022-11-02T20:16:58.357Z,73.94
2022-11-02T20:19:32.406Z,74.10
2022-11-02T20:22:00.339Z,74.01
2022-11-02T20:24:28.300Z,74.03
2022-11-02T20:27:02.525Z,74.66
2022-11-02T20:29:31.801Z,75.08
2022-11-02T20:31:59.736Z,75.60
2022-11-02T20:34:27.778Z,75.56
2022-11-02T20:36:55.751Z,75.10
2022-11-02T20:39:23.640Z,75.31
2022-11-02T20:41:55.755Z,75.29
2022-11-02T20:44:23.936Z,75.70
2022-11-02T20:46:53.783Z,75.65
2022-11-02T20:49:44.255Z,75.04
2022-11-02T20:52:10.718Z,75.54
2022-11-02T20:54:38.705Z,75.48
2022-11-02T20:57:07.001Z,74.98
2022-11-02T20:59:34.979Z,75.34
2022-11-02T21:02:04.677Z,74.45
2022-11-02T21:04:32.800Z,73.58
2022-11-02T21:07:00.817Z,72.99
2022-11-02T21:09:30.468Z,72.42
2022-11-02T21:12:16.229Z,71.85
2022-11-02T21:14:44.316Z,70.97
2022-11-02T21:17:13.692Z,71.09
2022-11-02T21:19:42.083Z,71.36
2022-11-02T21:22:10.141Z,71.89
2022-11-02T21:24:38.126Z,71.13
2022-11-02T21:27:06.980Z,71.06
2022-11-02T21:29:35.914Z,71.43
2022-11-02T21:32:04.008Z,71.99
2022-11-02T21:34:33.340Z,71.99
2022-11-02T21:37:03.031Z,71.74
2022-11-02T21:39:31.028Z,72.26
2022-11-02T21:41:59.829Z,72.04
2022-11-02T21:44:27.897Z,72.18
2022-11-02T21:46:55.970Z,72.43
2022-11-02T21:49:24.109Z,71.99
2022-11-02T21:51:53.407Z,71.20
2022-11-02T21:54:21.410Z,70.69
2022-11-02T21:56:50.316Z,71.69
2022-11-02T21:59:18.457Z,71.80
2022-11-02T22:01:47.157Z,71.02
2022-11-02T22:04:19.463Z,70.94
2022-11-02T22:06:47.661Z,71.45
2022-11-02T22:09:17.183Z,71.76
2022-11-02T22:11:45.288Z,72.08
2022-11-02T22:14:13.246Z,71.99
2022-11-02T22:16:43.906Z,71.92
2022-11-02T22:19:15.194Z,71.93
2022-11-02T22:21:46.116Z,71.60
2022-11-02T22:24:14.233Z,72.15
2022-11-02T22:26:43.582Z,72.59
2022-11-02T22:29:11.884Z,72.12
2022-11-02T22:31:41.801Z,70.71
2022-11-02T22:34:13.183Z,70.12
2022-11-02T22:36:44.177Z,70.00
2022-11-02T22:39:13.952Z,69.75
2022-11-02T22:41:45.557Z,70.48
2022-11-02T22:44:15.939Z,71.45
2022-11-02T22:46:46.897Z,72.04
2022-11-02T22:49:16.665Z,72.17
2022-11-02T22:51:47.735Z,72.09
2022-11-02T22:54:18.305Z,71.91
2022-11-02T22:56:49.703Z,72.81
2022-11-02T22:59:17.997Z,71.69
2022-11-02T23:01:46.250Z,72.22
2022-11-02T23:04:14.576Z,72.56
2022-11-02T23:06:42.627Z,72.85
2022-11-02T23:09:12.967Z,72.16
2022-11-02T23:11:40.111Z,72.29
2022-11-02T23:14:12.867Z,73.05
2022-11-02T23:16:43.238Z,73.10
2022-11-02T23:19:30.280Z,73.13
2022-11-02T23:22:18.594Z,73.12
2022-11-02T23:25:06.785Z,70.60
2022-11-02T23:27:58.322Z,71.63
2022-11-02T23:30:48.034Z,72.62
2022-11-02T23:33:16.856Z,72.16
2022-11-02T23:36:02.620Z,72.12
2022-11-02T23:38:51.101Z,72.94
2022-11-02T23:41:21.717Z,71.97
2022-11-02T23:43:50.037Z,71.44
2022-11-02T23:46:19.529Z,71.82
2022-11-02T23:48:49.801Z,71.51
2022-11-02T23:51:38.512Z,71.91
2022-11-02T23:54:24.246Z,71.86
2022-11-02T23:56:52.286Z,72.50
2022-11-02T23:59:20.265Z,73.20
